National Weather Service Raw Text Product

Displaying AFOS PIL: TAFMCW Received: 2018-02-09 17:38 UTC


705 
FTUS43 KDMX 091738
TAFMCW
TAF
KMCW 091738Z 0918/1018 01010KT P6SM SCT230
     FM092000 36010KT P6SM BKN220
     FM100300 34006KT P6SM OVC070
     FM101300 31005KT P6SM SCT120=